sensor_id;sensor_type;location;lat;lon;timestamp;pressure;altitude;pressure_sealevel;temperature;humidity
36828;BME280;22766;48.042;11.192;2023-03-23T00:01:16;94589.91;;;6.22;100.00
36828;BME280;22766;48.042;11.192;2023-03-23T00:03:46;94588.16;;;6.22;100.00
36828;BME280;22766;48.042;11.192;2023-03-23T00:06:13;94580.59;;;6.21;100.00
36828;BME280;22766;48.042;11.192;2023-03-23T00:08:45;94583.03;;;6.22;100.00
36828;BME280;22766;48.042;11.192;2023-03-23T00:13:40;94582.06;;;6.23;100.00
36828;BME280;22766;48.042;11.192;2023-03-23T00:16:07;94586.13;;;6.26;100.00
36828;BME280;22766;48.042;11.192;2023-03-23T00:18:51;94582.06;;;6.23;100.00
36828;BME280;22766;48.042;11.192;2023-03-23T00:21:22;94589.75;;;6.23;100.00
36828;BME280;22766;48.042;11.192;2023-03-23T00:24:03;94586.50;;;6.21;100.00
36828;BME280;22766;48.042;11.192;2023-03-23T00:26:30;94575.47;;;6.21;100.00
36828;BME280;22766;48.042;11.192;2023-03-23T00:29:15;94583.03;;;6.22;100.00
36828;BME280;22766;48.042;11.192;2023-03-23T00:31:43;94570.47;;;6.19;100.00
36828;BME280;22766;48.042;11.192;2023-03-23T00:34:17;94590.84;;;6.21;100.00
36828;BME280;22766;48.042;11.192;2023-03-23T00:36:45;94584.09;;;6.20;100.00
36828;BME280;22766;48.042;11.192;2023-03-23T00:39:11;94587.31;;;6.22;100.00
36828;BME280;22766;48.042;11.192;2023-03-23T00:41:39;94572.75;;;6.22;100.00
36828;BME280;22766;48.042;11.192;2023-03-23T00:44:05;94578.72;;;6.23;100.00
36828;BME280;22766;48.042;11.192;2023-03-23T00:46:30;94583.84;;;6.23;100.00
36828;BME280;22766;48.042;11.192;2023-03-23T00:48:56;94579.50;;;6.23;100.00
36828;BME280;22766;48.042;11.192;2023-03-23T00:51:23;94578.72;;;6.23;100.00
36828;BME280;22766;48.042;11.192;2023-03-23T00:53:49;94579.38;;;6.25;100.00
36828;BME280;22766;48.042;11.192;2023-03-23T00:56:16;94571.81;;;6.23;100.00
36828;BME280;22766;48.042;11.192;2023-03-23T00:58:42;94572.34;;;6.27;100.00
36828;BME280;22766;48.042;11.192;2023-03-23T01:01:08;94575.19;;;6.24;100.00
36828;BME280;22766;48.042;11.192;2023-03-23T01:03:34;94575.47;;;6.21;100.00
36828;BME280;22766;48.042;11.192;2023-03-23T01:06:06;94572.78;;;6.13;100.00
36828;BME280;22766;48.042;11.192;2023-03-23T01:08:34;94574.28;;;6.06;100.00
36828;BME280;22766;48.042;11.192;2023-03-23T01:11:06;94574.28;;;5.96;100.00
36828;BME280;22766;48.042;11.192;2023-03-23T01:13:32;94568.03;;;5.89;100.00
36828;BME280;22766;48.042;11.192;2023-03-23T01:15:58;94570.22;;;5.94;100.00
36828;BME280;22766;48.042;11.192;2023-03-23T01:18:23;94565.22;;;5.92;100.00
36828;BME280;22766;48.042;11.192;2023-03-23T01:20:49;94556.72;;;5.92;100.00
36828;BME280;22766;48.042;11.192;2023-03-23T01:23:17;94560.63;;;5.86;100.00
36828;BME280;22766;48.042;11.192;2023-03-23T01:25:43;94556.88;;;5.90;100.00
36828;BME280;22766;48.042;11.192;2023-03-23T01:28:10;94560.25;;;5.91;100.00
36828;BME280;22766;48.042;11.192;2023-03-23T01:30:37;94549.56;;;5.95;100.00
36828;BME280;22766;48.042;11.192;2023-03-23T01:33:02;94549.03;;;6.01;100.00
36828;BME280;22766;48.042;11.192;2023-03-23T01:35:28;94553.63;;;5.98;100.00
36828;BME280;22766;48.042;11.192;2023-03-23T01:37:59;94547.00;;;6.05;100.00
36828;BME280;22766;48.042;11.192;2023-03-23T01:40:26;94550.53;;;5.94;100.00
36828;BME280;22766;48.042;11.192;2023-03-23T01:42:52;94552.81;;;5.88;100.00
36828;BME280;22766;48.042;11.192;2023-03-23T01:50:43;94548.47;;;5.79;100.00
36828;BME280;22766;48.042;11.192;2023-03-23T01:53:11;94546.97;;;5.66;100.00
36828;BME280;22766;48.042;11.192;2023-03-23T01:55:39;94542.25;;;5.52;100.00
36828;BME280;22766;48.042;11.192;2023-03-23T01:58:06;94550.03;;;5.51;100.00
36828;BME280;22766;48.042;11.192;2023-03-23T02:00:33;94535.63;;;5.40;100.00
36828;BME280;22766;48.042;11.192;2023-03-23T02:03:00;94540.44;;;5.34;100.00
36828;BME280;22766;48.042;11.192;2023-03-23T02:05:40;94534.56;;;5.43;100.00
36828;BME280;22766;48.042;11.192;2023-03-23T02:08:16;94540.91;;;5.58;100.00
36828;BME280;22766;48.042;11.192;2023-03-23T02:10:44;94538.06;;;5.51;100.00
36828;BME280;22766;48.042;11.192;2023-03-23T02:13:11;94539.25;;;5.47;100.00
36828;BME280;22766;48.042;11.192;2023-03-23T02:15:49;94540.50;;;5.72;100.00
36828;BME280;22766;48.042;11.192;2023-03-23T02:35:33;94537.91;;;5.43;100.00
36828;BME280;22766;48.042;11.192;2023-03-23T02:38:03;94531.47;;;5.39;100.00
36828;BME280;22766;48.042;11.192;2023-03-23T02:40:39;94528.91;;;5.49;100.00
36828;BME280;22766;48.042;11.192;2023-03-23T02:43:12;94523.78;;;5.49;100.00
36828;BME280;22766;48.042;11.192;2023-03-23T02:45:41;94526.91;;;5.52;100.00
36828;BME280;22766;48.042;11.192;2023-03-23T02:48:09;94533.75;;;5.42;100.00
36828;BME280;22766;48.042;11.192;2023-03-23T02:50:37;94530.13;;;5.45;100.00
36828;BME280;22766;48.042;11.192;2023-03-23T02:53:08;94534.16;;;5.47;100.00
36828;BME280;22766;48.042;11.192;2023-03-23T02:55:37;94532.25;;;5.49;100.00
36828;BME280;22766;48.042;11.192;2023-03-23T02:58:14;94532.53;;;5.46;100.00
36828;BME280;22766;48.042;11.192;2023-03-23T03:00:42;94527.81;;;5.42;100.00
36828;BME280;22766;48.042;11.192;2023-03-23T03:03:13;94529.84;;;5.48;100.00
36828;BME280;22766;48.042;11.192;2023-03-23T03:08:13;94534.56;;;5.43;100.00
36828;BME280;22766;48.042;11.192;2023-03-23T03:10:54;94536.84;;;5.46;100.00
36828;BME280;22766;48.042;11.192;2023-03-23T03:14:00;94527.97;;;5.50;100.00
36828;BME280;22766;48.042;11.192;2023-03-23T03:16:37;94529.56;;;5.70;100.00
36828;BME280;22766;48.042;11.192;2023-03-23T03:19:27;94513.16;;;5.82;100.00
36828;BME280;22766;48.042;11.192;2023-03-23T03:21:57;94521.78;;;5.81;100.00
36828;BME280;22766;48.042;11.192;2023-03-23T03:24:33;94527.44;;;5.75;100.00
36828;BME280;22766;48.042;11.192;2023-03-23T03:27:04;94530.16;;;5.74;100.00
36828;BME280;22766;48.042;11.192;2023-03-23T03:29:44;94524.59;;;5.68;100.00
36828;BME280;22766;48.042;11.192;2023-03-23T03:32:15;94527.69;;;5.72;100.00
36828;BME280;22766;48.042;11.192;2023-03-23T03:34:42;94532.28;;;5.68;100.00
36828;BME280;22766;48.042;11.192;2023-03-23T03:37:09;94532.03;;;5.62;100.00
36828;BME280;22766;48.042;11.192;2023-03-23T03:39:37;94527.44;;;5.65;100.00
36828;BME280;22766;48.042;11.192;2023-03-23T03:42:04;94528.66;;;5.61;100.00
36828;BME280;22766;48.042;11.192;2023-03-23T03:44:32;94530.91;;;5.55;100.00
36828;BME280;22766;48.042;11.192;2023-03-23T03:46:58;94541.31;;;5.53;100.00
36828;BME280;22766;48.042;11.192;2023-03-23T03:49:24;94538.19;;;5.50;100.00
36828;BME280;22766;48.042;11.192;2023-03-23T03:51:52;94534.56;;;5.43;100.00
36828;BME280;22766;48.042;11.192;2023-03-23T03:54:23;94543.03;;;5.43;100.00
36828;BME280;22766;48.042;11.192;2023-03-23T03:56:49;94542.25;;;5.43;100.00
36828;BME280;22766;48.042;11.192;2023-03-23T03:59:49;94549.91;;;5.43;100.00
36828;BME280;22766;48.042;11.192;2023-03-23T04:02:24;94538.59;;;5.45;100.00
36828;BME280;22766;48.042;11.192;2023-03-23T04:04:51;94544.13;;;5.50;100.00
36828;BME280;22766;48.042;11.192;2023-03-23T04:07:18;94550.47;;;5.56;100.00
36828;BME280;22766;48.042;11.192;2023-03-23T04:09:44;94556.53;;;5.74;100.00
36828;BME280;22766;48.042;11.192;2023-03-23T04:12:14;94554.25;;;5.52;100.00
36828;BME280;22766;48.042;11.192;2023-03-23T04:14:55;94554.91;;;5.44;100.00
36828;BME280;22766;48.042;11.192;2023-03-23T04:17:22;94553.81;;;5.37;100.00
36828;BME280;22766;48.042;11.192;2023-03-23T04:19:52;94553.13;;;5.35;100.00
36828;BME280;22766;48.042;11.192;2023-03-23T04:22:18;94556.91;;;5.31;100.00
36828;BME280;22766;48.042;11.192;2023-03-23T04:24:44;94569.41;;;5.25;100.00
36828;BME280;22766;48.042;11.192;2023-03-23T04:27:15;94575.47;;;5.24;100.00
36828;BME280;22766;48.042;11.192;2023-03-23T04:29:41;94575.88;;;5.29;100.00
36828;BME280;22766;48.042;11.192;2023-03-23T04:32:25;94584.00;;;5.43;100.00
36828;BME280;22766;48.042;11.192;2023-03-23T04:34:55;94577.44;;;5.50;100.00
36828;BME280;22766;48.042;11.192;2023-03-23T04:37:28;94583.63;;;5.57;100.00
36828;BME280;22766;48.042;11.192;2023-03-23T04:40:00;94570.53;;;5.60;100.00
36828;BME280;22766;48.042;11.192;2023-03-23T04:42:29;94564.75;;;5.58;100.00
36828;BME280;22766;48.042;11.192;2023-03-23T04:45:25;94563.44;;;5.64;100.00
36828;BME280;22766;48.042;11.192;2023-03-23T04:47:53;94570.16;;;5.65;100.00
36828;BME280;22766;48.042;11.192;2023-03-23T04:50:29;94577.16;;;5.63;100.00
36828;BME280;22766;48.042;11.192;2023-03-23T04:53:02;94574.47;;;5.64;100.00
36828;BME280;22766;48.042;11.192;2023-03-23T04:55:33;94576.25;;;5.64;100.00
36828;BME280;22766;48.042;11.192;2023-03-23T04:58:05;94571.78;;;5.76;100.00
36828;BME280;22766;48.042;11.192;2023-03-23T05:00:57;94585.53;;;5.75;100.00
36828;BME280;22766;48.042;11.192;2023-03-23T05:03:24;94580.69;;;5.72;100.00
36828;BME280;22766;48.042;11.192;2023-03-23T05:05:53;94580.81;;;5.70;100.00
36828;BME280;22766;48.042;11.192;2023-03-23T05:08:21;94579.19;;;5.69;100.00
36828;BME280;22766;48.042;11.192;2023-03-23T05:10:56;94586.06;;;5.68;100.00
36828;BME280;22766;48.042;11.192;2023-03-23T05:13:24;94586.59;;;5.72;100.00
36828;BME280;22766;48.042;11.192;2023-03-23T05:15:52;94590.38;;;5.68;100.00
36828;BME280;22766;48.042;11.192;2023-03-23T05:18:18;94585.25;;;5.68;100.00
36828;BME280;22766;48.042;11.192;2023-03-23T05:20:46;94583.94;;;5.74;100.00
36828;BME280;22766;48.042;11.192;2023-03-23T05:23:18;94587.41;;;5.72;100.00
36828;BME280;22766;48.042;11.192;2023-03-23T05:25:55;94578.13;;;5.81;100.00
36828;BME280;22766;48.042;11.192;2023-03-23T05:28:23;94576.66;;;5.79;100.00
36828;BME280;22766;48.042;11.192;2023-03-23T05:30:56;94559.25;;;5.82;100.00
36828;BME280;22766;48.042;11.192;2023-03-23T05:33:25;94558.44;;;5.82;100.00
36828;BME280;22766;48.042;11.192;2023-03-23T05:35:57;94562.09;;;5.79;100.00
36828;BME280;22766;48.042;11.192;2023-03-23T05:38:27;94560.72;;;5.65;100.00
36828;BME280;22766;48.042;11.192;2023-03-23T05:40:54;94542.94;;;5.54;100.00
36828;BME280;22766;48.042;11.192;2023-03-23T05:43:27;94543.31;;;5.50;100.00
36828;BME280;22766;48.042;11.192;2023-03-23T05:46:06;94528.09;;;5.48;100.00
36828;BME280;22766;48.042;11.192;2023-03-23T05:48:33;94520.56;;;5.56;100.00
36828;BME280;22766;48.042;11.192;2023-03-23T05:51:00;94514.50;;;5.67;100.00
36828;BME280;22766;48.042;11.192;2023-03-23T05:53:27;94516.09;;;5.78;100.00
36828;BME280;22766;48.042;11.192;2023-03-23T05:55:58;94531.09;;;5.92;100.00
36828;BME280;22766;48.042;11.192;2023-03-23T05:58:38;94541.34;;;6.11;100.00
36828;BME280;22766;48.042;11.192;2023-03-23T06:01:07;94554.97;;;6.30;100.00
36828;BME280;22766;48.042;11.192;2023-03-23T06:03:33;94557.56;;;6.67;100.00
36828;BME280;22766;48.042;11.192;2023-03-23T06:06:10;94567.84;;;7.04;100.00
36828;BME280;22766;48.042;11.192;2023-03-23T06:08:48;94570.59;;;7.47;100.00
36828;BME280;22766;48.042;11.192;2023-03-23T06:11:16;94570.13;;;7.61;100.00
36828;BME280;22766;48.042;11.192;2023-03-23T06:13:54;94564.72;;;7.37;100.00
36828;BME280;22766;48.042;11.192;2023-03-23T06:16:20;94559.53;;;7.19;100.00
36828;BME280;22766;48.042;11.192;2023-03-23T06:18:51;94552.81;;;7.09;100.00
36828;BME280;22766;48.042;11.192;2023-03-23T06:21:37;94549.56;;;7.07;100.00
36828;BME280;22766;48.042;11.192;2023-03-23T06:24:15;94538.63;;;6.78;100.00
36828;BME280;22766;48.042;11.192;2023-03-23T06:26:41;94539.91;;;6.54;100.00
36828;BME280;22766;48.042;11.192;2023-03-23T06:29:11;94533.75;;;6.38;100.00
36828;BME280;22766;48.042;11.192;2023-03-23T06:31:51;94518.41;;;6.28;100.00
36828;BME280;22766;48.042;11.192;2023-03-23T06:34:18;94515.13;;;6.36;100.00
36828;BME280;22766;48.042;11.192;2023-03-23T06:37:02;94516.88;;;6.45;100.00
36828;BME280;22766;48.042;11.192;2023-03-23T06:39:40;94517.78;;;6.53;100.00
36828;BME280;22766;48.042;11.192;2023-03-23T06:42:17;94520.19;;;6.65;100.00
36828;BME280;22766;48.042;11.192;2023-03-23T06:44:48;94504.19;;;6.80;100.00
36828;BME280;22766;48.042;11.192;2023-03-23T06:47:14;94506.56;;;7.18;100.00
36828;BME280;22766;48.042;11.192;2023-03-23T06:49:45;94513.94;;;7.48;100.00
36828;BME280;22766;48.042;11.192;2023-03-23T06:52:20;94504.63;;;7.83;100.00
36828;BME280;22766;48.042;11.192;2023-03-23T06:54:47;94515.50;;;8.12;100.00
36828;BME280;22766;48.042;11.192;2023-03-23T06:57:13;94513.13;;;8.36;100.00
36828;BME280;22766;48.042;11.192;2023-03-23T06:59:38;94522.00;;;8.67;100.00
36828;BME280;22766;48.042;11.192;2023-03-23T07:02:05;94518.78;;;8.99;100.00
36828;BME280;22766;48.042;11.192;2023-03-23T07:04:32;94512.84;;;9.40;100.00
36828;BME280;22766;48.042;11.192;2023-03-23T07:07:09;94518.56;;;9.76;100.00
36828;BME280;22766;48.042;11.192;2023-03-23T07:09:45;94516.69;;;10.18;100.00
36828;BME280;22766;48.042;11.192;2023-03-23T07:12:11;94518.28;;;10.51;100.00
36828;BME280;22766;48.042;11.192;2023-03-23T07:14:44;94515.22;;;10.40;100.00
36828;BME280;22766;48.042;11.192;2023-03-23T07:17:10;94505.69;;;10.00;100.00
36828;BME280;22766;48.042;11.192;2023-03-23T07:19:43;94515.03;;;9.93;100.00
36828;BME280;22766;48.042;11.192;2023-03-23T07:22:11;94518.06;;;9.80;100.00
36828;BME280;22766;48.042;11.192;2023-03-23T07:24:39;94509.84;;;9.69;100.00
36828;BME280;22766;48.042;11.192;2023-03-23T07:27:15;94514.66;;;9.64;100.00
36828;BME280;22766;48.042;11.192;2023-03-23T07:29:41;94511.31;;;9.79;100.00
36828;BME280;22766;48.042;11.192;2023-03-23T07:32:14;94510.84;;;9.92;100.00
36828;BME280;22766;48.042;11.192;2023-03-23T07:34:43;94515.97;;;9.76;100.00
36828;BME280;22766;48.042;11.192;2023-03-23T07:37:16;94518.59;;;9.84;100.00
36828;BME280;22766;48.042;11.192;2023-03-23T07:39:46;94517.47;;;10.02;100.00
36828;BME280;22766;48.042;11.192;2023-03-23T07:42:12;94509.88;;;9.85;100.00
36828;BME280;22766;48.042;11.192;2023-03-23T07:44:46;94513.56;;;9.74;100.00
36828;BME280;22766;48.042;11.192;2023-03-23T07:47:12;94524.84;;;9.81;100.00
36828;BME280;22766;48.042;11.192;2023-03-23T07:49:39;94506.94;;;9.88;100.00
36828;BME280;22766;48.042;11.192;2023-03-23T07:52:40;94510.53;;;9.95;100.00
36828;BME280;22766;48.042;11.192;2023-03-23T07:55:10;94520.41;;;10.15;100.00
36828;BME280;22766;48.042;11.192;2023-03-23T07:58:08;94515.41;;;10.14;100.00
36828;BME280;22766;48.042;11.192;2023-03-23T08:00:35;94508.94;;;10.10;100.00
36828;BME280;22766;48.042;11.192;2023-03-23T08:03:04;94515.41;;;10.14;100.00
36828;BME280;22766;48.042;11.192;2023-03-23T08:05:58;94510.38;;;10.04;100.00
36828;BME280;22766;48.042;11.192;2023-03-23T08:08:48;94510.69;;;10.01;100.00
36828;BME280;22766;48.042;11.192;2023-03-23T08:11:34;94514.75;;;10.12;100.00
36828;BME280;22766;48.042;11.192;2023-03-23T08:14:26;94525.88;;;10.28;100.00
36828;BME280;22766;48.042;11.192;2023-03-23T08:17:12;94521.34;;;10.55;100.00
36828;BME280;22766;48.042;11.192;2023-03-23T08:20:00;94517.75;;;10.72;100.00
36828;BME280;22766;48.042;11.192;2023-03-23T08:22:54;94525.59;;;11.02;100.00
36828;BME280;22766;48.042;11.192;2023-03-23T08:25:39;94532.69;;;11.08;100.00
36828;BME280;22766;48.042;11.192;2023-03-23T08:28:20;94542.72;;;10.95;100.00
36828;BME280;22766;48.042;11.192;2023-03-23T08:30:55;94550.69;;;10.70;100.00
36828;BME280;22766;48.042;11.192;2023-03-23T08:33:45;94550.34;;;10.81;100.00
36828;BME280;22766;48.042;11.192;2023-03-23T08:36:33;94549.63;;;11.11;100.00
36828;BME280;22766;48.042;11.192;2023-03-23T08:39:21;94551.16;;;11.36;100.00
36828;BME280;22766;48.042;11.192;2023-03-23T08:41:59;94559.03;;;11.51;100.00
36828;BME280;22766;48.042;11.192;2023-03-23T08:44:45;94557.00;;;11.61;100.00
36828;BME280;22766;48.042;11.192;2023-03-23T08:47:25;94566.69;;;11.75;100.00
36828;BME280;22766;48.042;11.192;2023-03-23T08:50:26;94572.13;;;11.80;100.00
36828;BME280;22766;48.042;11.192;2023-03-23T08:53:10;94572.88;;;11.96;100.00
36828;BME280;22766;48.042;11.192;2023-03-23T08:56:04;94574.41;;;12.36;99.80
36828;BME280;22766;48.042;11.192;2023-03-23T08:58:53;94577.69;;;11.99;100.00
36828;BME280;22766;48.042;11.192;2023-03-23T09:01:36;94586.66;;;11.42;100.00
36828;BME280;22766;48.042;11.192;2023-03-23T09:04:40;94587.88;;;11.15;100.00
36828;BME280;22766;48.042;11.192;2023-03-23T09:07:27;94594.97;;;11.21;100.00
36828;BME280;22766;48.042;11.192;2023-03-23T09:09:52;94598.25;;;11.62;100.00
36828;BME280;22766;48.042;11.192;2023-03-23T09:12:18;94598.09;;;11.56;100.00
36828;BME280;22766;48.042;11.192;2023-03-23T09:14:43;94601.66;;;11.55;100.00
36828;BME280;22766;48.042;11.192;2023-03-23T09:17:09;94603.06;;;11.73;100.00
36828;BME280;22766;48.042;11.192;2023-03-23T09:19:38;94604.50;;;11.76;100.00
36828;BME280;22766;48.042;11.192;2023-03-23T09:22:05;94606.88;;;11.85;100.00
36828;BME280;22766;48.042;11.192;2023-03-23T09:24:31;94610.66;;;12.05;100.00
36828;BME280;22766;48.042;11.192;2023-03-23T09:26:56;94607.06;;;12.37;100.00
36828;BME280;22766;48.042;11.192;2023-03-23T09:29:25;94614.59;;;12.69;97.51
36828;BME280;22766;48.042;11.192;2023-03-23T09:31:50;94611.41;;;13.04;88.99
36828;BME280;22766;48.042;11.192;2023-03-23T09:34:16;94611.78;;;13.31;88.92
36828;BME280;22766;48.042;11.192;2023-03-23T09:36:43;94600.25;;;13.48;85.32
36828;BME280;22766;48.042;11.192;2023-03-23T09:39:09;94602.13;;;13.68;81.16
36828;BME280;22766;48.042;11.192;2023-03-23T09:47:16;94595.00;;;15.12;70.50
36828;BME280;22766;48.042;11.192;2023-03-23T09:49:59;94597.97;;;15.36;62.13
36828;BME280;22766;48.042;11.192;2023-03-23T09:52:39;94605.34;;;15.60;58.89
36828;BME280;22766;48.042;11.192;2023-03-23T09:55:11;94603.56;;;15.67;57.21
36828;BME280;22766;48.042;11.192;2023-03-23T10:00:40;94601.28;;;15.85;56.62
36828;BME280;22766;48.042;11.192;2023-03-23T10:03:22;94602.53;;;15.55;58.78
36828;BME280;22766;48.042;11.192;2023-03-23T10:05:52;94604.00;;;15.71;57.24
36828;BME280;22766;48.042;11.192;2023-03-23T10:08:26;94611.75;;;16.05;52.58
36828;BME280;22766;48.042;11.192;2023-03-23T10:13:53;94607.72;;;15.96;52.50
36828;BME280;22766;48.042;11.192;2023-03-23T10:16:26;94597.63;;;16.27;50.46
36828;BME280;22766;48.042;11.192;2023-03-23T10:22:08;94616.25;;;16.31;49.40
36828;BME280;22766;48.042;11.192;2023-03-23T10:24:50;94612.84;;;16.30;50.88
36828;BME280;22766;48.042;11.192;2023-03-23T10:27:24;94623.06;;;16.32;53.02
36828;BME280;22766;48.042;11.192;2023-03-23T10:30:03;94615.38;;;16.58;49.94
36828;BME280;22766;48.042;11.192;2023-03-23T10:32:56;94609.91;;;16.46;52.41
36828;BME280;22766;48.042;11.192;2023-03-23T10:35:31;94610.56;;;16.74;49.06
36828;BME280;22766;48.042;11.192;2023-03-23T10:38:01;94608.16;;;16.79;47.56
36828;BME280;22766;48.042;11.192;2023-03-23T10:40:30;94604.53;;;16.61;49.98
36828;BME280;22766;48.042;11.192;2023-03-23T10:42:58;94607.72;;;16.50;52.29
36828;BME280;22766;48.042;11.192;2023-03-23T10:45:25;94607.16;;;16.74;48.35
36828;BME280;22766;48.042;11.192;2023-03-23T10:48:08;94604.97;;;16.71;49.08
36828;BME280;22766;48.042;11.192;2023-03-23T10:50:37;94609.94;;;16.66;49.22
36828;BME280;22766;48.042;11.192;2023-03-23T10:53:13;94607.94;;;16.61;48.92
36828;BME280;22766;48.042;11.192;2023-03-23T10:55:41;94603.56;;;16.81;47.65
36828;BME280;22766;48.042;11.192;2023-03-23T10:58:11;94607.19;;;16.80;49.71
36828;BME280;22766;48.042;11.192;2023-03-23T11:00:45;94604.78;;;16.92;47.88
36828;BME280;22766;48.042;11.192;2023-03-23T11:05:56;94602.75;;;16.74;49.09
36828;BME280;22766;48.042;11.192;2023-03-23T11:08:46;94611.81;;;16.98;47.69
36828;BME280;22766;48.042;11.192;2023-03-23T11:11:48;94601.56;;;17.10;45.87
36828;BME280;22766;48.042;11.192;2023-03-23T11:14:35;94601.16;;;17.00;47.29
36828;BME280;22766;48.042;11.192;2023-03-23T11:17:05;94587.31;;;17.12;46.25
36828;BME280;22766;48.042;11.192;2023-03-23T11:19:45;94599.53;;;17.57;44.67
36828;BME280;22766;48.042;11.192;2023-03-23T11:22:32;94595.09;;;17.64;44.26
36828;BME280;22766;48.042;11.192;2023-03-23T11:25:03;94589.59;;;17.92;43.12
36828;BME280;22766;48.042;11.192;2023-03-23T11:27:30;94592.91;;;18.12;42.39
36828;BME280;22766;48.042;11.192;2023-03-23T11:30:07;94600.84;;;18.43;41.03
36828;BME280;22766;48.042;11.192;2023-03-23T11:32:35;94602.56;;;18.56;42.48
36828;BME280;22766;48.042;11.192;2023-03-23T11:35:04;94591.38;;;19.05;42.90
36828;BME280;22766;48.042;11.192;2023-03-23T11:37:41;94590.66;;;19.47;40.61
36828;BME280;22766;48.042;11.192;2023-03-23T11:50:33;94578.25;;;20.97;35.38
36828;BME280;22766;48.042;11.192;2023-03-23T11:55:49;94568.25;;;21.75;33.70
36828;BME280;22766;48.042;11.192;2023-03-23T11:58:20;94577.09;;;21.69;32.80
36828;BME280;22766;48.042;11.192;2023-03-23T12:00:51;94578.88;;;21.11;33.61
36828;BME280;22766;48.042;11.192;2023-03-23T12:06:07;94586.78;;;20.81;34.77
36828;BME280;22766;48.042;11.192;2023-03-23T12:11:59;94578.00;;;19.80;35.39
36828;BME280;22766;48.042;11.192;2023-03-23T12:31:00;94575.94;;;18.28;36.99
36828;BME280;22766;48.042;11.192;2023-03-23T12:33:38;94567.78;;;18.18;36.77
36828;BME280;22766;48.042;11.192;2023-03-23T12:36:43;94571.53;;;18.28;36.49
36828;BME280;22766;48.042;11.192;2023-03-23T12:47:47;94566.06;;;17.92;36.53
36828;BME280;22766;48.042;11.192;2023-03-23T12:50:44;94557.19;;;18.00;36.52
36828;BME280;22766;48.042;11.192;2023-03-23T12:53:24;94570.88;;;17.95;37.65
36828;BME280;22766;48.042;11.192;2023-03-23T12:58:38;94561.03;;;17.97;37.84
36828;BME280;22766;48.042;11.192;2023-03-23T13:06:44;94558.00;;;18.00;38.35
36828;BME280;22766;48.042;11.192;2023-03-23T13:10:02;94544.59;;;18.28;38.30
36828;BME280;22766;48.042;11.192;2023-03-23T13:12:17;94552.97;;;18.43;38.60
36828;BME280;22766;48.042;11.192;2023-03-23T13:28:29;94553.03;;;18.92;37.86
36828;BME280;22766;48.042;11.192;2023-03-23T13:33:30;94543.88;;;18.52;37.92
36828;BME280;22766;48.042;11.192;2023-03-23T13:35:56;94548.78;;;18.35;39.21
36828;BME280;22766;48.042;11.192;2023-03-23T13:38:30;94551.09;;;18.19;39.25
36828;BME280;22766;48.042;11.192;2023-03-23T13:40:56;94552.56;;;18.02;40.01
36828;BME280;22766;48.042;11.192;2023-03-23T13:43:29;94549.28;;;17.68;41.05
36828;BME280;22766;48.042;11.192;2023-03-23T13:46:06;94546.97;;;17.98;40.32
36828;BME280;22766;48.042;11.192;2023-03-23T13:48:45;94538.31;;;18.04;39.62
36828;BME280;22766;48.042;11.192;2023-03-23T13:54:19;94542.75;;;17.97;40.48
36828;BME280;22766;48.042;11.192;2023-03-23T13:56:59;94529.16;;;17.82;40.82
36828;BME280;22766;48.042;11.192;2023-03-23T14:02:21;94521.59;;;17.67;40.89
36828;BME280;22766;48.042;11.192;2023-03-23T14:04:45;94519.28;;;17.84;40.40
36828;BME280;22766;48.042;11.192;2023-03-23T14:07:16;94521.56;;;17.74;41.76
36828;BME280;22766;48.042;11.192;2023-03-23T14:09:44;94515.75;;;17.72;41.17
36828;BME280;22766;48.042;11.192;2023-03-23T14:12:15;94516.19;;;17.62;41.10
36828;BME280;22766;48.042;11.192;2023-03-23T14:14:43;94517.63;;;17.52;42.57
36828;BME280;22766;48.042;11.192;2023-03-23T14:17:19;94512.59;;;17.50;42.70
36828;BME280;22766;48.042;11.192;2023-03-23T14:19:50;94516.81;;;17.45;42.60
36828;BME280;22766;48.042;11.192;2023-03-23T14:24:53;94512.44;;;17.32;43.55
36828;BME280;22766;48.042;11.192;2023-03-23T14:27:24;94513.06;;;17.15;44.35
36828;BME280;22766;48.042;11.192;2023-03-23T14:30:01;94511.91;;;16.78;45.87
36828;BME280;22766;48.042;11.192;2023-03-23T14:32:30;94516.66;;;17.14;45.10
36828;BME280;22766;48.042;11.192;2023-03-23T14:34:59;94515.88;;;17.20;46.13
36828;BME280;22766;48.042;11.192;2023-03-23T14:37:25;94512.69;;;17.05;47.29
36828;BME280;22766;48.042;11.192;2023-03-23T14:39:53;94518.13;;;16.90;48.08
36828;BME280;22766;48.042;11.192;2023-03-23T14:42:30;94517.31;;;16.83;49.08
36828;BME280;22766;48.042;11.192;2023-03-23T14:44:59;94515.91;;;16.87;48.41
36828;BME280;22766;48.042;11.192;2023-03-23T14:47:29;94525.72;;;16.85;47.90
36828;BME280;22766;48.042;11.192;2023-03-23T14:49:58;94525.50;;;17.06;46.81
36828;BME280;22766;48.042;11.192;2023-03-23T14:52:29;94530.78;;;16.87;47.12
36828;BME280;22766;48.042;11.192;2023-03-23T14:55:14;94533.75;;;16.57;49.81
36828;BME280;22766;48.042;11.192;2023-03-23T14:57:42;94533.94;;;16.75;47.54
36828;BME280;22766;48.042;11.192;2023-03-23T15:02:49;94536.16;;;16.59;47.96
36828;BME280;22766;48.042;11.192;2023-03-23T15:05:22;94530.72;;;16.47;48.03
36828;BME280;22766;48.042;11.192;2023-03-23T15:07:53;94539.78;;;16.51;47.15
36828;BME280;22766;48.042;11.192;2023-03-23T15:10:21;94538.97;;;16.57;46.61
36828;BME280;22766;48.042;11.192;2023-03-23T15:12:48;94542.78;;;16.48;47.02
36828;BME280;22766;48.042;11.192;2023-03-23T15:15:22;94542.13;;;16.33;47.45
36828;BME280;22766;48.042;11.192;2023-03-23T15:17:47;94545.72;;;16.26;47.52
36828;BME280;22766;48.042;11.192;2023-03-23T15:20:24;94555.47;;;16.04;48.33
36828;BME280;22766;48.042;11.192;2023-03-23T15:22:54;94552.44;;;15.87;51.27